createdAt,value
2018-10-12T00:01:14.285Z,14.43
2018-10-12T00:03:41.575Z,15.68
2018-10-12T00:06:08.896Z,17.20
2018-10-12T00:08:36.307Z,16.67
2018-10-12T00:11:03.563Z,19.20
2018-10-12T00:13:30.807Z,17.45
2018-10-12T00:15:58.040Z,18.15
2018-10-12T00:18:25.280Z,20.57
2018-10-12T00:20:52.531Z,17.07
2018-10-12T00:23:19.817Z,17.32
2018-10-12T00:25:47.156Z,19.40
2018-10-12T00:28:14.426Z,18.50
2018-10-12T00:30:41.682Z,17.32
2018-10-12T00:33:08.928Z,21.07
2018-10-12T00:35:36.197Z,16.67
2018-10-12T00:38:03.458Z,19.82
2018-10-12T00:40:30.716Z,16.42
2018-10-12T00:42:57.964Z,16.23
2018-10-12T00:45:25.220Z,20.68
2018-10-12T00:47:58.275Z,18.12
2018-10-12T00:50:25.532Z,18.15
2018-10-12T00:52:52.789Z,17.90
2018-10-12T00:55:20.060Z,18.98
2018-10-12T00:57:47.303Z,15.68
2018-10-12T01:00:14.589Z,18.32
2018-10-12T01:02:41.820Z,19.30
2018-10-12T01:05:08.844Z,16.75
2018-10-12T01:07:36.092Z,16.77
2018-10-12T01:10:03.391Z,18.80
2018-10-12T01:12:32.648Z,18.20
2018-10-12T01:15:00.472Z,21.23
2018-10-12T01:17:28.303Z,20.97
2018-10-12T01:19:56.294Z,19.48
2018-10-12T01:22:24.053Z,22.48
2018-10-12T01:24:51.327Z,18.37
2018-10-12T01:27:18.607Z,18.75
2018-10-12T01:29:45.932Z,18.30
2018-10-12T01:32:18.903Z,17.10
2018-10-12T01:34:46.212Z,16.00
2018-10-12T01:37:13.501Z,18.07
2018-10-12T01:39:40.764Z,15.85
2018-10-12T01:42:08.053Z,17.15
2018-10-12T01:44:35.312Z,18.80
2018-10-12T01:47:02.588Z,16.82
2018-10-12T01:49:29.852Z,16.07
2018-10-12T01:51:57.144Z,20.32
2018-10-12T01:54:24.399Z,19.25
2018-10-12T01:56:51.708Z,19.67
2018-10-12T01:59:19.296Z,18.17
2018-10-12T02:01:46.535Z,15.30
2018-10-12T02:04:13.913Z,15.93
2018-10-12T02:06:41.192Z,16.00
2018-10-12T02:09:08.463Z,16.32
2018-10-12T02:11:35.739Z,17.17
2018-10-12T02:14:03.007Z,16.45
2018-10-12T02:16:30.270Z,17.30
2018-10-12T02:18:57.829Z,18.67
2018-10-12T02:21:25.138Z,23.00
2018-10-12T02:23:52.411Z,18.80
2018-10-12T02:26:19.681Z,21.00
2018-10-12T02:28:46.940Z,18.30
2018-10-12T02:31:14.229Z,18.87
2018-10-12T02:33:41.496Z,17.50
2018-10-12T02:36:08.759Z,16.40
2018-10-12T02:38:36.012Z,15.08
2018-10-12T02:41:03.296Z,14.43
2018-10-12T02:43:30.551Z,13.78
2018-10-12T02:45:57.831Z,15.93
2018-10-12T02:48:25.384Z,16.73
2018-10-12T02:50:53.264Z,13.72
2018-10-12T02:53:20.650Z,14.35
2018-10-12T02:55:47.909Z,16.40
2018-10-12T02:58:17.829Z,14.75
2018-10-12T03:00:45.123Z,14.98
2018-10-12T03:03:12.570Z,15.20
2018-10-12T03:05:40.073Z,19.07
2018-10-12T03:08:07.349Z,14.43
2018-10-12T03:10:34.620Z,14.33
2018-10-12T03:13:01.900Z,14.33
2018-10-12T03:15:29.143Z,15.45
2018-10-12T03:17:56.416Z,14.85
2018-10-12T03:20:23.675Z,14.95
2018-10-12T03:22:50.937Z,15.30
2018-10-12T03:25:18.256Z,14.85
2018-10-12T03:27:57.342Z,14.25
2018-10-12T03:30:24.728Z,15.48
2018-10-12T03:32:52.035Z,15.30
2018-10-12T03:35:19.347Z,14.43
2018-10-12T03:37:46.636Z,15.95
2018-10-12T03:40:13.948Z,17.60
2018-10-12T03:42:41.235Z,15.30
2018-10-12T03:45:08.520Z,14.47
2018-10-12T03:47:35.807Z,15.03
2018-10-12T03:50:03.472Z,15.13
2018-10-12T03:52:30.745Z,15.93
2018-10-12T03:54:58.075Z,15.40
2018-10-12T03:57:25.332Z,16.20
2018-10-12T03:59:52.564Z,15.13
2018-10-12T04:02:19.801Z,17.00
2018-10-12T04:04:47.200Z,15.53
2018-10-12T04:07:14.491Z,16.47
2018-10-12T04:09:41.744Z,15.67
2018-10-12T04:12:08.992Z,15.28
2018-10-12T04:14:36.232Z,17.93
2018-10-12T04:17:03.492Z,15.23
2018-10-12T04:19:30.761Z,15.60
2018-10-12T04:21:58.036Z,15.83
2018-10-12T04:24:25.300Z,15.75
2018-10-12T04:26:52.564Z,14.93
2018-10-12T04:29:19.835Z,15.80
2018-10-12T04:31:47.165Z,16.30
2018-10-12T04:34:14.409Z,17.33
2018-10-12T04:36:41.659Z,16.10
2018-10-12T04:39:20.488Z,16.17
2018-10-12T04:41:47.772Z,15.67
2018-10-12T04:44:15.028Z,15.60
2018-10-12T04:46:43.292Z,17.50
2018-10-12T04:49:13.012Z,16.17
2018-10-12T04:51:49.512Z,16.73
2018-10-12T04:54:17.080Z,18.43
2018-10-12T04:56:44.907Z,15.60
2018-10-12T04:59:12.195Z,16.83
2018-10-12T05:01:39.485Z,16.50
2018-10-12T05:04:06.760Z,14.40
2018-10-12T05:06:34.053Z,15.43
2018-10-12T05:09:01.319Z,15.90
2018-10-12T05:11:28.587Z,15.17
2018-10-12T05:13:55.844Z,16.67
2018-10-12T05:16:23.144Z,14.63
2018-10-12T05:18:50.467Z,16.77
2018-10-12T05:21:17.726Z,14.27
2018-10-12T05:23:44.977Z,17.57
2018-10-12T05:26:12.243Z,19.23
2018-10-12T05:28:39.617Z,15.70
2018-10-12T05:31:07.063Z,16.90
2018-10-12T05:33:34.288Z,17.30
2018-10-12T05:36:01.558Z,18.67
2018-10-12T05:38:29.971Z,20.43
2018-10-12T05:40:57.415Z,18.00
2018-10-12T05:43:24.749Z,18.03
2018-10-12T05:45:51.920Z,19.03
2018-10-12T05:48:30.913Z,17.37
2018-10-12T05:50:59.507Z,16.77
2018-10-12T05:53:27.215Z,16.77
2018-10-12T05:55:54.574Z,17.23
2018-10-12T05:58:21.879Z,17.27
2018-10-12T06:00:49.578Z,20.47
2018-10-12T06:03:16.944Z,17.27
2018-10-12T06:05:44.260Z,16.60
2018-10-12T06:08:11.567Z,16.30
2018-10-12T06:10:38.955Z,18.63
2018-10-12T06:13:06.283Z,19.30
2018-10-12T06:15:33.580Z,18.63
2018-10-12T06:18:00.869Z,16.23
2018-10-12T06:20:28.248Z,16.63
2018-10-12T06:22:55.674Z,18.13
2018-10-12T06:25:22.976Z,16.60
2018-10-12T06:27:50.345Z,22.07
2018-10-12T06:30:17.669Z,18.80
2018-10-12T06:32:45.152Z,14.93
2018-10-12T06:35:12.423Z,18.20
2018-10-12T06:37:39.666Z,23.27
2018-10-12T06:40:06.968Z,16.55
2018-10-12T06:42:34.264Z,16.10
2018-10-12T06:45:01.739Z,16.03
2018-10-12T06:47:29.132Z,19.00
2018-10-12T06:49:56.395Z,19.00
2018-10-12T06:52:23.666Z,24.57
2018-10-12T06:54:50.952Z,20.77
2018-10-12T06:57:18.244Z,17.93
2018-10-12T06:59:45.548Z,19.85
2018-10-12T07:02:15.269Z,18.40
2018-10-12T07:04:42.956Z,16.97
2018-10-12T07:07:10.233Z,16.30
2018-10-12T07:09:37.512Z,15.58
2018-10-12T07:12:04.847Z,18.52
2018-10-12T07:14:32.139Z,18.85
2018-10-12T07:16:59.411Z,14.90
2018-10-12T07:19:26.731Z,14.87
2018-10-12T07:21:54.376Z,13.45
2018-10-12T07:24:21.334Z,15.32
2018-10-12T07:26:48.606Z,17.98
2018-10-12T07:29:15.853Z,14.23
2018-10-12T07:31:43.109Z,14.93
2018-10-12T07:34:10.365Z,15.80
2018-10-12T07:36:37.635Z,16.25
2018-10-12T07:39:07.027Z,16.27
2018-10-12T07:41:34.312Z,15.90
2018-10-12T07:44:01.573Z,17.25
2018-10-12T07:46:28.838Z,12.80
2018-10-12T07:48:56.116Z,12.98
2018-10-12T07:51:23.409Z,14.73
2018-10-12T07:53:50.679Z,13.50
2018-10-12T07:56:17.966Z,16.65
2018-10-12T07:58:45.225Z,12.60
2018-10-12T08:01:12.498Z,14.03
2018-10-12T08:03:39.788Z,12.82
2018-10-12T08:06:07.059Z,12.37
2018-10-12T08:08:34.288Z,13.05
2018-10-12T08:11:01.532Z,12.28
2018-10-12T08:13:28.790Z,13.22
2018-10-12T08:15:57.071Z,12.10
2018-10-12T08:18:24.817Z,14.43
2018-10-12T08:20:52.477Z,13.15
2018-10-12T08:23:19.882Z,11.97
2018-10-12T08:25:47.559Z,11.53
2018-10-12T08:28:14.928Z,13.05
2018-10-12T08:30:42.171Z,11.80
2018-10-12T08:33:09.424Z,13.60
2018-10-12T08:35:36.728Z,13.25
2018-10-12T08:38:03.995Z,14.58
2018-10-12T08:40:31.227Z,10.68
2018-10-12T08:42:58.493Z,11.15
2018-10-12T08:45:25.737Z,11.85
2018-10-12T08:47:53.948Z,11.20
2018-10-12T08:50:21.199Z,14.07
2018-10-12T08:52:48.515Z,11.22
2018-10-12T08:55:15.803Z,10.85
2018-10-12T08:57:45.243Z,10.18
2018-10-12T09:00:12.875Z,9.63
2018-10-12T09:02:40.107Z,9.28
2018-10-12T09:05:07.428Z,9.38
2018-10-12T09:07:34.791Z,9.15
2018-10-12T09:10:02.270Z,10.10
2018-10-12T09:12:29.559Z,8.88
2018-10-12T09:14:56.861Z,11.12
2018-10-12T09:17:24.475Z,7.90
2018-10-12T09:19:52.431Z,9.20
2018-10-12T09:22:19.720Z,8.15
2018-10-12T09:24:46.984Z,8.08
2018-10-12T09:27:14.303Z,8.38
2018-10-12T09:29:41.519Z,10.53
2018-10-12T09:32:08.816Z,7.80
2018-10-12T09:34:36.096Z,6.92
2018-10-12T09:37:03.562Z,7.33
2018-10-12T09:39:31.420Z,6.50
2018-10-12T09:41:59.104Z,5.97
2018-10-12T09:44:26.386Z,7.92
2018-10-12T09:46:53.639Z,6.08
2018-10-12T09:49:20.952Z,6.87
2018-10-12T09:51:48.172Z,7.15
2018-10-12T09:54:15.504Z,6.25
2018-10-12T09:56:47.339Z,5.78
2018-10-12T09:59:14.584Z,5.47
2018-10-12T10:01:47.615Z,5.37
2018-10-12T10:04:22.327Z,5.85
2018-10-12T10:06:51.495Z,8.53
2018-10-12T10:09:18.751Z,7.37
2018-10-12T10:11:46.343Z,4.95
2018-10-12T10:14:13.700Z,5.40
2018-10-12T10:16:41.033Z,6.70
2018-10-12T10:19:08.396Z,4.50
2018-10-12T10:21:35.775Z,6.03
2018-10-12T10:24:03.180Z,4.08
2018-10-12T10:26:30.603Z,4.83
2018-10-12T10:28:58.064Z,4.35
2018-10-12T10:31:25.448Z,4.15
2018-10-12T10:33:52.872Z,4.47
2018-10-12T10:36:20.221Z,3.02
2018-10-12T10:38:47.746Z,4.08
2018-10-12T10:41:15.163Z,2.60
2018-10-12T10:43:42.507Z,3.10
2018-10-12T10:46:09.914Z,3.17
2018-10-12T10:48:37.221Z,2.67
2018-10-12T10:51:04.561Z,2.83
2018-10-12T10:53:32.004Z,3.33
2018-10-12T10:55:59.255Z,2.55
2018-10-12T10:58:26.652Z,3.27
2018-10-12T11:01:00.517Z,3.08
2018-10-12T11:03:27.766Z,2.62
2018-10-12T11:05:55.093Z,3.50
2018-10-12T11:08:22.471Z,3.75
2018-10-12T11:10:49.748Z,2.20
2018-10-12T11:13:17.057Z,3.33
2018-10-12T11:15:44.335Z,2.52
2018-10-12T11:18:11.625Z,2.50
2018-10-12T11:20:39.023Z,3.45
2018-10-12T11:23:06.289Z,4.62
2018-10-12T11:25:33.636Z,3.98
2018-10-12T11:28:00.935Z,3.02
2018-10-12T11:30:28.319Z,3.75
2018-10-12T11:32:55.751Z,3.62
2018-10-12T11:35:25.283Z,6.03
2018-10-12T11:37:52.686Z,3.95
2018-10-12T11:40:19.978Z,4.55
2018-10-12T11:43:00.252Z,3.52
2018-10-12T11:45:27.684Z,7.58
2018-10-12T11:47:55.431Z,8.08
2018-10-12T11:50:22.861Z,7.28
2018-10-12T11:52:50.145Z,7.20
2018-10-12T11:55:19.341Z,5.97
2018-10-12T11:57:46.597Z,3.83
2018-10-12T12:00:13.885Z,4.60
2018-10-12T12:02:41.160Z,5.62
2018-10-12T12:05:08.521Z,5.30
2018-10-12T12:07:35.810Z,5.08
2018-10-12T12:10:03.184Z,6.25
2018-10-12T12:12:30.459Z,5.45
2018-10-12T12:14:57.773Z,6.10
2018-10-12T12:17:25.092Z,5.15
2018-10-12T12:19:54.386Z,5.17
2018-10-12T12:22:21.701Z,4.08
2018-10-12T12:24:49.033Z,4.22
2018-10-12T12:27:16.328Z,5.00
2018-10-12T12:29:43.602Z,5.45
2018-10-12T12:32:10.880Z,4.50
2018-10-12T12:34:38.220Z,4.28
2018-10-12T12:37:05.969Z,2.95
2018-10-12T12:39:33.285Z,3.72
2018-10-12T12:42:00.650Z,4.00
2018-10-12T12:44:28.073Z,3.75
2018-10-12T12:46:55.384Z,3.00
2018-10-12T12:49:23.129Z,2.30
2018-10-12T12:51:50.019Z,3.12
2018-10-12T12:54:17.288Z,2.85
2018-10-12T12:56:45.680Z,3.25
2018-10-12T12:59:13.036Z,2.10
2018-10-12T13:01:40.335Z,2.00
2018-10-12T13:04:07.687Z,2.08
2018-10-12T13:06:35.095Z,3.42
2018-10-12T13:09:03.070Z,4.70
2018-10-12T13:11:30.345Z,3.12
2018-10-12T13:13:57.673Z,2.12
2018-10-12T13:16:24.975Z,1.90
2018-10-12T13:18:55.801Z,2.60
2018-10-12T13:21:23.085Z,3.90
2018-10-12T13:23:50.363Z,3.50
2018-10-12T13:32:07.836Z,4.00
2018-10-12T13:34:35.125Z,3.55
2018-10-12T13:37:02.517Z,2.95
2018-10-12T13:39:29.809Z,3.00
2018-10-12T13:41:57.200Z,4.33
2018-10-12T13:44:24.513Z,3.10
2018-10-12T13:46:51.797Z,2.98
2018-10-12T13:49:19.074Z,3.77
2018-10-12T13:51:46.408Z,2.30
2018-10-12T13:54:13.779Z,2.37
2018-10-12T13:56:41.065Z,2.25
2018-10-12T13:59:08.373Z,2.85
2018-10-12T14:01:35.694Z,2.55
2018-10-12T14:04:03.112Z,2.10
2018-10-12T14:06:30.389Z,2.30
2018-10-12T14:08:58.158Z,3.00
2018-10-12T14:11:25.904Z,3.02
2018-10-12T14:13:55.156Z,1.82
2018-10-12T14:16:22.812Z,2.20
2018-10-12T14:18:50.206Z,1.70
2018-10-12T14:21:17.449Z,2.95
2018-10-12T14:23:44.756Z,2.98
2018-10-12T14:26:12.037Z,3.45
2018-10-12T14:28:39.511Z,2.12
2018-10-12T14:31:06.812Z,2.75
2018-10-12T14:33:34.182Z,2.27
2018-10-12T14:36:01.562Z,2.30
2018-10-12T14:38:28.892Z,3.05
2018-10-12T14:40:56.215Z,2.75
2018-10-12T14:43:25.390Z,2.77
2018-10-12T14:45:52.657Z,2.27
2018-10-12T14:48:19.949Z,2.83
2018-10-12T14:50:48.861Z,2.90
2018-10-12T14:53:16.261Z,2.25
2018-10-12T14:55:51.702Z,1.87
2018-10-12T14:58:19.623Z,2.45
2018-10-12T15:00:46.926Z,4.62
2018-10-12T15:03:14.185Z,2.10
2018-10-12T15:05:41.731Z,3.08
2018-10-12T15:08:08.954Z,4.53
2018-10-12T15:10:36.241Z,3.47
2018-10-12T15:13:03.714Z,4.35
2018-10-12T15:15:30.996Z,3.20
2018-10-12T15:17:58.802Z,3.98
2018-10-12T15:20:26.402Z,2.40
2018-10-12T15:22:53.824Z,3.55
2018-10-12T15:25:21.219Z,3.60
2018-10-12T15:27:48.478Z,2.27
2018-10-12T15:30:16.436Z,3.22
2018-10-12T15:32:43.838Z,2.70
2018-10-12T15:35:11.234Z,4.75
2018-10-12T15:37:39.225Z,3.90
2018-10-12T15:40:06.532Z,3.47
2018-10-12T15:42:33.890Z,4.47
2018-10-12T15:45:01.149Z,3.65
2018-10-12T15:47:28.441Z,3.02
2018-10-12T15:49:55.776Z,5.37
2018-10-12T15:52:23.084Z,3.58
2018-10-12T15:54:50.703Z,5.53
2018-10-12T15:57:23.725Z,4.05
2018-10-12T15:59:51.065Z,5.40
2018-10-12T16:02:18.357Z,5.12
2018-10-12T16:04:45.919Z,4.70
2018-10-12T16:07:14.065Z,4.42
2018-10-12T16:09:41.912Z,5.42
2018-10-12T16:12:09.280Z,6.72
2018-10-12T16:14:36.747Z,5.67
2018-10-12T16:17:03.976Z,8.55
2018-10-12T16:19:31.369Z,5.22
2018-10-12T16:21:58.686Z,4.00
2018-10-12T16:24:26.093Z,5.50
2018-10-12T16:26:53.497Z,5.78
2018-10-12T16:29:20.793Z,5.78
2018-10-12T16:31:48.085Z,6.83
2018-10-12T16:34:15.367Z,6.60
2018-10-12T16:36:42.712Z,9.35
2018-10-12T16:39:10.502Z,12.85
2018-10-12T16:41:38.412Z,7.95
2018-10-12T16:44:05.781Z,7.90
2018-10-12T16:46:33.091Z,7.45
2018-10-12T16:49:00.594Z,5.55
2018-10-12T16:51:27.949Z,5.83
2018-10-12T16:53:55.277Z,6.03
2018-10-12T16:56:22.681Z,9.55
2018-10-12T16:58:49.974Z,5.17
2018-10-12T17:01:17.479Z,7.10
2018-10-12T17:03:44.754Z,6.78
2018-10-12T17:06:12.057Z,5.40
2018-10-12T17:08:39.332Z,6.40
2018-10-12T17:11:06.687Z,7.55
2018-10-12T17:13:33.892Z,8.50
2018-10-12T17:16:01.149Z,8.78
2018-10-12T17:18:28.909Z,8.83
2018-10-12T17:20:56.114Z,6.35
2018-10-12T17:23:23.395Z,7.62
2018-10-12T17:25:50.654Z,6.20
2018-10-12T17:28:18.612Z,7.03
2018-10-12T17:30:45.843Z,9.40
2018-10-12T17:33:13.115Z,8.40
2018-10-12T17:35:42.308Z,6.87
2018-10-12T17:38:09.579Z,7.83
2018-10-12T17:40:36.868Z,8.03
2018-10-12T17:43:04.251Z,8.85
2018-10-12T17:45:31.488Z,8.10
2018-10-12T17:47:58.848Z,6.87
2018-10-12T17:50:26.096Z,8.30
2018-10-12T17:52:53.358Z,6.62
2018-10-12T17:55:20.629Z,6.90
2018-10-12T17:57:47.858Z,8.68
2018-10-12T18:00:15.261Z,7.83
2018-10-12T18:02:42.436Z,8.78
2018-10-12T18:05:09.694Z,8.03
2018-10-12T18:07:36.964Z,8.20
2018-10-12T18:10:04.403Z,7.97
2018-10-12T18:12:31.748Z,6.00
2018-10-12T18:14:59.348Z,6.00
2018-10-12T18:17:26.584Z,7.25
2018-10-12T18:19:53.991Z,8.13
2018-10-12T18:22:21.232Z,6.55
2018-10-12T18:24:48.576Z,6.65
2018-10-12T18:27:15.796Z,10.60
2018-10-12T18:29:43.139Z,6.83
2018-10-12T18:32:10.422Z,7.53
2018-10-12T18:34:37.800Z,7.55
2018-10-12T18:37:05.068Z,9.48
2018-10-12T18:39:32.388Z,7.45
2018-10-12T18:41:59.716Z,8.25
2018-10-12T18:44:26.996Z,7.62
2018-10-12T18:46:54.343Z,7.80
2018-10-12T18:49:21.611Z,8.78
2018-10-12T18:51:48.908Z,5.83
2018-10-12T18:54:16.288Z,10.30
2018-10-12T18:56:43.751Z,10.10
2018-10-12T18:59:10.999Z,10.13
2018-10-12T19:01:38.370Z,11.93
2018-10-12T19:04:07.703Z,14.73
2018-10-12T19:06:37.057Z,7.92
2018-10-12T19:09:07.035Z,10.85
2018-10-12T19:11:36.660Z,10.38
2018-10-12T19:14:04.061Z,13.10
2018-10-12T19:16:31.315Z,9.20
2018-10-12T19:18:58.596Z,8.75
2018-10-12T19:21:25.860Z,7.47
2018-10-12T19:23:53.159Z,9.73
2018-10-12T19:26:20.391Z,10.50
2018-10-12T19:28:47.646Z,12.30
2018-10-12T19:31:14.976Z,11.28
2018-10-12T19:33:42.177Z,10.53
2018-10-12T19:36:11.490Z,8.20
2018-10-12T19:38:40.324Z,12.35
2018-10-12T19:41:07.672Z,11.48
2018-10-12T19:43:34.920Z,9.90
2018-10-12T19:46:02.189Z,8.70
2018-10-12T19:48:29.420Z,9.18
2018-10-12T19:50:56.763Z,11.57
2018-10-12T19:53:24.022Z,8.73
2018-10-12T19:55:53.317Z,8.93
2018-10-12T19:58:20.565Z,10.43
2018-10-12T20:00:47.795Z,11.30
2018-10-12T20:03:15.041Z,9.03
2018-10-12T20:05:42.276Z,17.57
2018-10-12T20:08:09.565Z,11.60
2018-10-12T20:10:36.873Z,12.10
2018-10-12T20:13:04.159Z,11.20
2018-10-12T20:15:31.431Z,10.08
2018-10-12T20:17:58.668Z,12.78
2018-10-12T20:20:25.918Z,10.90
2018-10-12T20:22:53.195Z,8.75
2018-10-12T20:25:20.590Z,10.30
2018-10-12T20:27:47.841Z,8.78
2018-10-12T20:30:15.118Z,10.90
2018-10-12T20:32:42.412Z,11.68
2018-10-12T20:35:09.719Z,12.75
2018-10-12T20:37:36.994Z,11.55
2018-10-12T20:40:04.332Z,13.03
2018-10-12T20:42:31.650Z,11.55
2018-10-12T20:44:58.948Z,11.55
2018-10-12T20:47:26.195Z,10.63
2018-10-12T20:49:53.540Z,10.90
2018-10-12T20:52:21.041Z,9.23
2018-10-12T20:54:48.296Z,11.15
2018-10-12T20:57:15.651Z,9.93
2018-10-12T20:59:42.984Z,10.53
2018-10-12T21:02:10.258Z,9.23
2018-10-12T21:04:37.529Z,10.15
2018-10-12T21:07:05.173Z,9.85
2018-10-12T21:09:32.582Z,12.18
2018-10-12T21:11:59.824Z,11.50
2018-10-12T21:14:27.068Z,12.50
2018-10-12T21:16:54.461Z,10.38
2018-10-12T21:19:21.670Z,10.53
2018-10-12T21:21:48.930Z,10.25
2018-10-12T21:24:16.284Z,11.65
2018-10-12T21:26:43.573Z,11.35
2018-10-12T21:29:10.928Z,13.78
2018-10-12T21:31:38.252Z,11.20
2018-10-12T21:34:05.570Z,11.30
2018-10-12T21:36:32.814Z,11.90
2018-10-12T21:39:00.153Z,11.57
2018-10-12T21:41:27.449Z,12.15
2018-10-12T21:43:54.799Z,13.78
2018-10-12T21:46:22.128Z,10.35
2018-10-12T21:48:49.380Z,13.35
2018-10-12T21:51:16.676Z,13.20
2018-10-12T21:53:43.917Z,12.30
2018-10-12T21:56:11.186Z,11.15
2018-10-12T21:58:38.453Z,16.15
2018-10-12T22:01:05.921Z,11.75
2018-10-12T22:03:34.924Z,12.00
2018-10-12T22:06:02.260Z,10.50
2018-10-12T22:08:35.253Z,11.23
2018-10-12T22:11:03.111Z,10.95
2018-10-12T22:13:30.449Z,11.30
2018-10-12T22:15:57.711Z,14.10
2018-10-12T22:18:25.004Z,12.35
2018-10-12T22:20:52.483Z,11.65
2018-10-12T22:23:19.853Z,11.25
2018-10-12T22:25:47.366Z,13.78
2018-10-12T22:28:14.676Z,10.63
2018-10-12T22:30:42.030Z,10.88
2018-10-12T22:33:09.474Z,11.53
2018-10-12T22:35:36.919Z,10.75
2018-10-12T22:38:04.345Z,11.00
2018-10-12T22:40:31.690Z,11.63
2018-10-12T22:42:59.038Z,10.93
2018-10-12T22:45:26.413Z,12.00
2018-10-12T22:47:55.788Z,10.93
2018-10-12T22:50:23.232Z,10.63
2018-10-12T22:52:50.841Z,11.27
2018-10-12T22:55:18.080Z,12.33
2018-10-12T22:57:45.347Z,9.93
2018-10-12T23:00:12.840Z,11.37
2018-10-12T23:02:40.201Z,12.87
2018-10-12T23:05:07.528Z,11.73
2018-10-12T23:07:35.450Z,14.87
2018-10-12T23:10:02.973Z,12.33
2018-10-12T23:12:31.128Z,13.60
2018-10-12T23:14:58.534Z,14.87
2018-10-12T23:17:26.004Z,11.50
2018-10-12T23:19:53.429Z,13.27
2018-10-12T23:22:20.740Z,12.17
2018-10-12T23:24:47.983Z,13.47
2018-10-12T23:27:15.219Z,11.63
2018-10-12T23:29:42.528Z,12.20
2018-10-12T23:32:09.816Z,11.60
2018-10-12T23:34:37.067Z,13.80
2018-10-12T23:37:04.350Z,14.57
2018-10-12T23:39:31.615Z,15.30
2018-10-12T23:41:58.863Z,13.70
2018-10-12T23:44:26.092Z,11.20
2018-10-12T23:46:53.373Z,12.00
2018-10-12T23:49:20.608Z,10.60
2018-10-12T23:51:47.844Z,11.40
2018-10-12T23:54:15.099Z,11.37
2018-10-12T23:56:42.353Z,11.70
2018-10-12T23:59:09.594Z,12.90
